| time (UTC) | temp F | wind direction | speed MPH | gust MPH | rain 1hr in | rain 24hr in | rain mn in | humidity % | barometer mb |
| 20260510163922 | 71 | 308 | 3.0 | 6.0 | 0.00 | 0.00 | 0.00 | 50 | 1017.5 |
| 20260510163419 | 71 | 85 | 1.0 | 3.0 | 0.00 | 0.00 | 0.00 | 52 | 1017.7 |
| 20260510162919 | 71 | 320 | 6.0 | 9.0 | 0.00 | 0.00 | 0.00 | 49 | 1017.5 |
| 20260510162417 | 71 | 1 | 1.0 | 8.0 | 0.00 | 0.00 | 0.00 | 51 | 1017.5 |
| 20260510161912 | 72 | 240 | 0.0 | 4.0 | 0.00 | 0.00 | 0.00 | 55 | 1017.7 |
| 20260510161408 | 69 | 3 | 1.0 | 3.0 | 0.00 | 0.00 | 0.00 | 51 | 1017.7 |
| 20260510160906 | 69 | 231 | 5.0 | 13.0 | 0.00 | 0.00 | 0.00 | 50 | 1017.8 |
| 20260510160403 | 69 | 300 | 2.0 | 4.0 | 0.00 | 0.00 | 0.00 | 52 | 1017.8 |
| 20260510155901 | 69 | 314 | 9.0 | 11.0 | 0.00 | 0.00 | 0.00 | 50 | 1017.8 |
| 20260510155359 | 69 | 329 | 2.0 | 11.0 | 0.00 | 0.00 | 0.00 | 52 | 1017.8 |
| 20260510154854 | 69 | 88 | 2.0 | 4.0 | 0.00 | 0.00 | 0.00 | 53 | 1017.7 |
| 20260510154351 | 69 | 266 | 8.0 | 13.0 | 0.00 | 0.00 | 0.00 | 53 | 1017.8 |
| 20260510153845 | 68 | 330 | 3.0 | 7.0 | 0.00 | 0.00 | 0.00 | 54 | 1017.8 |
| 20260510153341 | 68 | 349 | 2.0 | 11.0 | 0.00 | 0.00 | 0.00 | 55 | 1017.8 |
| 20260510152838 | 68 | 271 | 2.0 | 9.0 | 0.00 | 0.00 | 0.00 | 58 | 1017.6 |
| 20260510152336 | 67 | 178 | 4.0 | 8.0 | 0.00 | 0.00 | 0.00 | 56 | 1017.7 |
| 20260510151831 | 69 | 146 | 4.0 | 9.0 | 0.00 | 0.00 | 0.00 | 56 | 1017.7 |
| 20260510151330 | 69 | 109 | 2.0 | 7.0 | 0.00 | 0.00 | 0.00 | 59 | 1017.7 |
| 20260510150825 | 68 | 202 | 6.0 | 7.0 | 0.00 | 0.00 | 0.00 | 59 | 1017.6 |
| 20260510150321 | 68 | 222 | 5.0 | 8.0 | 0.00 | 0.00 | 0.00 | 58 | 1017.6 |
| 20260510145817 | 68 | 321 | 2.0 | 6.0 | 0.00 | 0.00 | 0.00 | 58 | 1017.7 |
| 20260510145314 | 69 | 303 | 3.0 | 4.0 | 0.00 | 0.00 | 0.00 | 58 | 1017.7 |
| 20260510144810 | 68 | 356 | 0.0 | 3.0 | 0.00 | 0.00 | 0.00 | 59 | 1017.6 |
| 20260510144308 | 67 | 324 | 2.0 | 6.0 | 0.00 | 0.00 | 0.00 | 63 | 1017.6 |
| 20260510143807 | 66 | 143 | 4.0 | 7.0 | 0.00 | 0.00 | 0.00 | 61 | 1017.5 |
| 20260510143303 | 66 | 325 | 1.0 | 2.0 | 0.00 | 0.00 | 0.00 | 63 | 1017.4 |
| 20260510142800 | 66 | 303 | 2.0 | 4.0 | 0.00 | 0.00 | 0.00 | 64 | 1017.3 |
| 20260510142257 | 65 | 344 | 0.0 | 3.0 | 0.00 | 0.00 | 0.00 | 66 | 1017.4 |
| 20260510141754 | 65 | 109 | 0.0 | 3.0 | 0.00 | 0.00 | 0.00 | 68 | 1017.3 |
| 20260510141252 | 65 | 311 | 3.0 | 3.0 | 0.00 | 0.00 | 0.00 | 68 | 1017.5 |
| 20260510140748 | 63 | 108 | 0.0 | 3.0 | 0.00 | 0.00 | 0.00 | 68 | 1017.6 |
| 20260510140243 | 64 | 313 | 2.0 | 3.0 | 0.00 | 0.00 | 0.00 | 67 | 1017.4 |
| 20260510135738 | 63 | 314 | 1.0 | 6.0 | 0.00 | 0.00 | 0.00 | 69 | 1017.4 |
| 20260510135233 | 62 | 126 | 4.0 | 4.0 | 0.00 | 0.00 | 0.00 | 69 | 1017.5 |
| 20260510134731 | 63 | 347 | 1.0 | 3.0 | 0.00 | 0.00 | 0.00 | 69 | 1017.4 |
| 20260510134228 | 63 | 43 | 0.0 | 2.0 | 0.00 | 0.00 | 0.00 | 70 | 1017.4 |
| 20260510133724 | 62 | 331 | 0.0 | 4.0 | 0.00 | 0.00 | 0.00 | 73 | 1017.6 |
| 20260510133220 | 62 | 298 | 4.0 | 4.0 | 0.00 | 0.00 | 0.00 | 70 | 1017.7 |
| 20260510132716 | 61 | 296 | 4.0 | 6.0 | 0.00 | 0.00 | 0.00 | 72 | 1017.6 |
| 20260510132214 | 61 | 238 | 3.0 | 4.0 | 0.00 | 0.00 | 0.00 | 73 | 1017.6 |
| 20260510131711 | 61 | 233 | 3.0 | 7.0 | 0.00 | 0.00 | 0.00 | 74 | 1017.5 |
| 20260510131209 | 60 | 219 | 0.0 | 4.0 | 0.00 | 0.00 | 0.00 | 74 | 1017.5 |
| 20260510130705 | 61 | 210 | 2.0 | 2.0 | 0.00 | 0.00 | 0.00 | 78 | 1017.5 |
| 20260510130202 | 60 | 217 | 4.0 | 9.0 | 0.00 | 0.00 | 0.00 | 76 | 1017.5 |
| 20260510125658 | 60 | 2 | 1.0 | 4.0 | 0.00 | 0.00 | 0.00 | 76 | 1017.6 |
| 20260510125154 | 60 | 39 | 0.0 | 0.0 | 0.00 | 0.00 | 0.00 | 80 | 1017.5 |
| 20260510124651 | 60 | 324 | 0.0 | 0.0 | 0.00 | 0.00 | 0.00 | 81 | 1017.5 |
| 20260510124148 | 58 | 55 | 1.0 | 3.0 | 0.00 | 0.00 | 0.00 | 81 | 1017.6 |
| 20260510123644 | 57 | 42 | 0.0 | 4.0 | 0.00 | 0.00 | 0.00 | 85 | 1017.5 |
| 20260510123140 | 55 | 100 | 1.0 | 2.0 | 0.00 | 0.00 | 0.00 | 89 | 1017.2 |
| 20260510122636 | 53 | 80 | 2.0 | 3.0 | 0.00 | 0.00 | 0.00 | 99 | 1017.4 |
| 20260510122132 | 51 | 277 | 0.0 | 2.0 | 0.00 | 0.00 | 0.00 | 99 | 1017.4 |
| 20260510121629 | 49 | 53 | 0.0 | 0.0 | 0.00 | 0.00 | 0.00 | 99 | 1017.2 |
| 20260510121126 | 48 | 308 | 0.0 | 0.0 | 0.00 | 0.00 | 0.00 | 99 | 1017.2 |
| 20260510120624 | 47 | 346 | 0.0 | 0.0 | 0.00 | 0.00 | 0.00 | 99 | 1017.2 |
| 20260510120119 | 46 | 346 | 0.0 | 0.0 | 0.00 | 0.00 | 0.00 | 99 | 1017.2 |
| 20260510115616 | 45 | 346 | 0.0 | 0.0 | 0.00 | 0.00 | 0.00 | 99 | 1016.8 |
| 20260510115114 | 44 | 345 | 0.0 | 0.0 | 0.00 | 0.00 | 0.00 | 99 | 1017.0 |
| 20260510114609 | 43 | 347 | 0.0 | 1.0 | 0.00 | 0.00 | 0.00 | 99 | 1017.0 |
| 20260510114106 | 43 | 337 | 0.0 | 0.0 | 0.00 | 0.00 | 0.00 | 99 | 1016.7 |
| 20260510113601 | 42 | 337 | 0.0 | 0.0 | 0.00 | 0.00 | 0.00 | 99 | 1016.7 |
| 20260510113059 | 42 | 289 | 0.0 | 0.0 | 0.00 | 0.00 | 0.00 | 99 | 1016.6 |
| 20260510112555 | 41 | 289 | 0.0 | 0.0 | 0.00 | 0.00 | 0.00 | 99 | 1016.5 |
| 20260510112052 | 41 | 289 | 0.0 | 0.0 | 0.00 | 0.00 | 0.00 | 99 | 1016.5 |
| 20260510111548 | 41 | 290 | 0.0 | 0.0 | 0.00 | 0.00 | 0.00 | 99 | 1016.6 |
| 20260510111044 | 41 | 290 | 0.0 | 0.0 | 0.00 | 0.00 | 0.00 | 99 | 1016.4 |
| 20260510110540 | 41 | 288 | 0.0 | 0.0 | 0.00 | 0.00 | 0.00 | 99 | 1016.3 |
| 20260510110037 | 41 | 289 | 0.0 | 0.0 | 0.00 | 0.00 | 0.00 | 99 | 1016.4 |
| 20260510105532 | 40 | 290 | 0.0 | 1.0 | 0.00 | 0.00 | 0.00 | 99 | 1016.3 |
| 20260510105027 | 40 | 278 | 0.0 | 0.0 | 0.00 | 0.00 | 0.00 | 99 | 1016.3 |
| 20260510104524 | 40 | 278 | 0.0 | 0.0 | 0.00 | 0.00 | 0.00 | 99 | 1016.2 |
| 20260510104020 | 40 | 278 | 0.0 | 0.0 | 0.00 | 0.00 | 0.00 | 99 | 1016.1 |
| 20260510103518 | 40 | 278 | 0.0 | 0.0 | 0.00 | 0.00 | 0.00 | 99 | 1016.2 |
| 20260510103014 | 40 | 278 | 0.0 | 0.0 | 0.00 | 0.00 | 0.00 | 99 | 1016.0 |
| 20260510102510 | 40 | 285 | 0.0 | 1.0 | 0.00 | 0.00 | 0.00 | 99 | 1016.0 |
| 20260510102006 | 40 | 262 | 0.0 | 0.0 | 0.00 | 0.00 | 0.00 | 99 | 1016.0 |
| 20260510101504 | 40 | 262 | 0.0 | 0.0 | 0.00 | 0.00 | 0.00 | 99 | 1015.7 |
| 20260510101002 | 40 | 262 | 0.0 | 0.0 | 0.00 | 0.00 | 0.00 | 99 | 1015.8 |
| 20260510100458 | 40 | 262 | 0.0 | 0.0 | 0.00 | 0.00 | 0.00 | 99 | 1015.7 |
| 20260510095954 | 40 | 262 | 0.0 | 0.0 | 0.00 | 0.00 | 0.00 | 99 | 1015.7 |
| 20260510095450 | 40 | 262 | 0.0 | 0.0 | 0.00 | 0.00 | 0.00 | 99 | 1015.6 |
| 20260510094949 | 40 | 262 | 0.0 | 0.0 | 0.00 | 0.00 | 0.00 | 99 | 1015.5 |
| 20260510094445 | 40 | 262 | 0.0 | 0.0 | 0.00 | 0.00 | 0.00 | 99 | 1015.5 |
| 20260510093941 | 40 | 262 | 0.0 | 0.0 | 0.00 | 0.00 | 0.00 | 99 | 1015.3 |
| 20260510093436 | 40 | 262 | 0.0 | 0.0 | 0.00 | 0.00 | 0.00 | 99 | 1015.7 |
| 20260510092933 | 40 | 262 | 0.0 | 0.0 | 0.00 | 0.00 | 0.00 | 99 | 1015.6 |
| 20260510092431 | 40 | 262 | 0.0 | 0.0 | 0.00 | 0.00 | 0.00 | 99 | 1015.5 |
| 20260510091930 | 40 | 262 | 0.0 | 0.0 | 0.00 | 0.00 | 0.00 | 99 | 1015.3 |
| 20260510091428 | 40 | 262 | 0.0 | 0.0 | 0.00 | 0.00 | 0.00 | 99 | 1015.2 |
| 20260510090924 | 40 | 262 | 0.0 | 0.0 | 0.00 | 0.00 | 0.00 | 99 | 1015.1 |
| 20260510090420 | 40 | 262 | 0.0 | 0.0 | 0.00 | 0.00 | 0.00 | 99 | 1015.0 |
| 20260510085916 | 40 | 262 | 0.0 | 0.0 | 0.00 | 0.00 | 0.00 | 99 | 1015.1 |
| 20260510085412 | 40 | 262 | 0.0 | 0.0 | 0.00 | 0.00 | 0.00 | 99 | 1015.0 |
| 20260510084907 | 40 | 262 | 0.0 | 0.0 | 0.00 | 0.00 | 0.00 | 99 | 1014.9 |
| 20260510084405 | 41 | 262 | 0.0 | 0.0 | 0.00 | 0.00 | 0.00 | 99 | 1015.0 |
| 20260510083901 | 41 | 262 | 0.0 | 0.0 | 0.00 | 0.00 | 0.00 | 99 | 1015.0 |
| 20260510083358 | 41 | 262 | 0.0 | 0.0 | 0.00 | 0.00 | 0.00 | 99 | 1014.9 |
| 20260510082853 | 41 | 262 | 0.0 | 0.0 | 0.00 | 0.00 | 0.00 | 99 | 1014.9 |
| 20260510082351 | 41 | 262 | 0.0 | 0.0 | 0.00 | 0.00 | 0.00 | 99 | 1014.6 |
| 20260510081849 | 41 | 262 | 0.0 | 0.0 | 0.00 | 0.00 | 0.00 | 99 | 1014.7 |
| 20260510081345 | 41 | 262 | 0.0 | 0.0 | 0.00 | 0.00 | 0.00 | 99 | 1014.7 |
| 20260510080843 | 41 | 262 | 0.0 | 0.0 | 0.00 | 0.00 | 0.00 | 99 | 1014.8 |
| 20260510080336 | 41 | 262 | 0.0 | 0.0 | 0.00 | 0.00 | 0.00 | 99 | 1014.7 |
| 20260510075834 | 42 | 262 | 0.0 | 0.0 | 0.00 | 0.00 | 0.00 | 99 | 1014.6 |
| 20260510075331 | 42 | 262 | 0.0 | 0.0 | 0.00 | 0.00 | 0.00 | 99 | 1014.6 |
| 20260510074828 | 42 | 262 | 0.0 | 0.0 | 0.00 | 0.00 | 0.00 | 99 | 1014.7 |
| 20260510074325 | 42 | 262 | 0.0 | 0.0 | 0.00 | 0.00 | 0.00 | 99 | 1014.6 |
| 20260510073821 | 42 | 262 | 0.0 | 0.0 | 0.00 | 0.00 | 0.00 | 99 | 1014.8 |
| 20260510073317 | 42 | 262 | 0.0 | 0.0 | 0.00 | 0.00 | 0.00 | 99 | 1014.6 |
| 20260510072813 | 42 | 262 | 0.0 | 0.0 | 0.00 | 0.00 | 0.00 | 99 | 1014.5 |
| 20260510072310 | 42 | 262 | 0.0 | 0.0 | 0.00 | 0.00 | 0.00 | 99 | 1014.6 |
| 20260510071807 | 42 | 262 | 0.0 | 0.0 | 0.00 | 0.00 | 0.00 | 99 | 1014.7 |
| 20260510071303 | 42 | 262 | 0.0 | 0.0 | 0.00 | 0.00 | 0.00 | 99 | 1014.7 |
| 20260510070802 | 42 | 262 | 0.0 | 0.0 | 0.00 | 0.00 | 0.00 | 99 | 1014.5 |
| 20260510070259 | 42 | 262 | 0.0 | 0.0 | 0.00 | 0.00 | 0.00 | 99 | 1014.7 |
| 20260510065758 | 42 | 262 | 0.0 | 0.0 | 0.00 | 0.00 | 0.00 | 99 | 1014.5 |
| 20260510065255 | 42 | 262 | 0.0 | 0.0 | 0.00 | 0.00 | 0.00 | 99 | 1014.5 |
| 20260510064752 | 42 | 262 | 0.0 | 0.0 | 0.00 | 0.00 | 0.00 | 99 | 1014.5 |
| 20260510064250 | 42 | 262 | 0.0 | 0.0 | 0.00 | 0.00 | 0.00 | 99 | 1014.4 |
| 20260510063745 | 43 | 262 | 0.0 | 0.0 | 0.00 | 0.00 | 0.00 | 99 | 1014.6 |
| 20260510063242 | 43 | 262 | 0.0 | 0.0 | 0.00 | 0.00 | 0.00 | 99 | 1014.5 |
| 20260510062739 | 43 | 262 | 0.0 | 0.0 | 0.00 | 0.00 | 0.00 | 99 | 1014.5 |
| 20260510062234 | 43 | 262 | 0.0 | 0.0 | 0.00 | 0.00 | 0.00 | 99 | 1014.5 |
| 20260510061730 | 43 | 262 | 0.0 | 0.0 | 0.00 | 0.00 | 0.00 | 99 | 1014.5 |
| 20260510061227 | 43 | 262 | 0.0 | 0.0 | 0.00 | 0.00 | 0.00 | 99 | 1014.3 |
| 20260510060724 | 43 | 262 | 0.0 | 0.0 | 0.00 | 0.00 | 0.00 | 99 | 1014.5 |
| 20260510060220 | 43 | 262 | 0.0 | 0.0 | 0.00 | 0.00 | 0.00 | 99 | 1014.6 |
| 20260510055717 | 43 | 262 | 0.0 | 0.0 | 0.00 | 0.00 | 0.00 | 99 | 1014.4 |
| 20260510055215 | 43 | 262 | 0.0 | 0.0 | 0.00 | 0.00 | 0.00 | 99 | 1014.7 |
| 20260510054710 | 43 | 262 | 0.0 | 0.0 | 0.00 | 0.00 | 0.00 | 99 | 1014.6 |
| 20260510054206 | 44 | 262 | 0.0 | 0.0 | 0.00 | 0.00 | 0.00 | 99 | 1014.7 |
| 20260510053706 | 44 | 262 | 0.0 | 0.0 | 0.00 | 0.00 | 0.00 | 99 | 1014.7 |
| 20260510053202 | 44 | 262 | 0.0 | 0.0 | 0.00 | 0.00 | 0.00 | 99 | 1014.6 |
| 20260510052658 | 44 | 262 | 0.0 | 0.0 | 0.00 | 0.00 | 0.00 | 99 | 1014.4 |
| 20260510052154 | 44 | 262 | 0.0 | 0.0 | 0.00 | 0.00 | 0.00 | 99 | 1014.5 |
| 20260510051650 | 44 | 262 | 0.0 | 0.0 | 0.00 | 0.00 | 0.00 | 99 | 1014.5 |
| 20260510051147 | 44 | 262 | 0.0 | 0.0 | 0.00 | 0.00 | 0.00 | 99 | 1014.7 |
| 20260510050644 | 44 | 262 | 0.0 | 0.0 | 0.00 | 0.00 | 0.00 | 99 | 1014.5 |
| 20260510050142 | 44 | 262 | 0.0 | 0.0 | 0.00 | 0.00 | 0.00 | 99 | 1014.4 |
| 20260510045638 | 45 | 262 | 0.0 | 0.0 | 0.00 | 0.00 | 0.00 | 99 | 1014.7 |
| 20260510045134 | 45 | 262 | 0.0 | 0.0 | 0.00 | 0.00 | 0.00 | 99 | 1014.6 |
| 20260510044631 | 45 | 262 | 0.0 | 0.0 | 0.00 | 0.00 | 0.00 | 99 | 1014.7 |
| 20260510044128 | 45 | 262 | 0.0 | 0.0 | 0.00 | 0.00 | 0.00 | 99 | 1014.6 |
| 20260510043624 | 45 | 263 | 0.0 | 0.0 | 0.00 | 0.00 | 0.00 | 99 | 1014.6 |
| 20260510043121 | 46 | 263 | 0.0 | 0.0 | 0.00 | 0.00 | 0.00 | 98 | 1014.5 |
| 20260510042618 | 46 | 263 | 0.0 | 0.0 | 0.00 | 0.00 | 0.00 | 98 | 1014.5 |
| 20260510042114 | 46 | 263 | 0.0 | 0.0 | 0.00 | 0.00 | 0.00 | 98 | 1014.6 |
| 20260510041606 | 46 | 263 | 0.0 | 0.0 | 0.00 | 0.00 | 0.00 | 98 | 1014.4 |
| 20260510041103 | 46 | 263 | 0.0 | 0.0 | 0.00 | 0.00 | 0.00 | 98 | 1014.3 |
| 20260510040600 | 46 | 263 | 0.0 | 0.0 | 0.00 | 0.00 | 0.00 | 98 | 1014.3 |
| 20260510040056 | 46 | 263 | 0.0 | 0.0 | 0.00 | 0.00 | 0.00 | 98 | 1014.3 |
| 20260510035552 | 46 | 263 | 0.0 | 0.0 | 0.00 | 0.00 | 0.00 | 98 | 1014.5 |
| 20260510035052 | 46 | 263 | 0.0 | 0.0 | 0.00 | 0.00 | 0.00 | 98 | 1014.5 |
| 20260510034550 | 47 | 263 | 0.0 | 0.0 | 0.00 | 0.00 | 0.00 | 98 | 1014.5 |
| 20260510034047 | 47 | 263 | 0.0 | 0.0 | 0.00 | 0.00 | 0.00 | 97 | 1014.4 |
| 20260510033543 | 47 | 263 | 0.0 | 0.0 | 0.00 | 0.00 | 0.00 | 97 | 1014.4 |
| 20260510033041 | 47 | 263 | 0.0 | 0.0 | 0.00 | 0.00 | 0.00 | 97 | 1014.4 |
| 20260510032538 | 47 | 263 | 0.0 | 0.0 | 0.00 | 0.00 | 0.00 | 97 | 1014.3 |
| 20260510032033 | 47 | 263 | 0.0 | 0.0 | 0.00 | 0.00 | 0.00 | 97 | 1014.3 |
| 20260510031527 | 47 | 263 | 0.0 | 0.0 | 0.00 | 0.00 | 0.00 | 97 | 1014.3 |
| 20260510031023 | 47 | 263 | 0.0 | 0.0 | 0.00 | 0.00 | 0.00 | 97 | 1014.4 |
| 20260510030519 | 47 | 263 | 0.0 | 0.0 | 0.00 | 0.00 | 0.00 | 96 | 1014.5 |
| 20260510030017 | 47 | 263 | 0.0 | 0.0 | 0.00 | 0.00 | 0.00 | 96 | 1014.4 |
| 20260510025514 | 48 | 263 | 0.0 | 0.0 | 0.00 | 0.00 | 0.00 | 96 | 1014.5 |
| 20260510025012 | 48 | 263 | 0.0 | 0.0 | 0.00 | 0.00 | 0.00 | 96 | 1014.5 |
| 20260510024508 | 48 | 263 | 0.0 | 0.0 | 0.00 | 0.00 | 0.00 | 96 | 1014.3 |
| 20260510024004 | 48 | 263 | 0.0 | 0.0 | 0.00 | 0.00 | 0.00 | 95 | 1014.6 |
| 20260510023500 | 48 | 263 | 0.0 | 0.0 | 0.00 | 0.00 | 0.00 | 95 | 1014.4 |
| 20260510022957 | 48 | 263 | 0.0 | 0.0 | 0.00 | 0.00 | 0.00 | 95 | 1014.4 |
| 20260510022456 | 49 | 263 | 0.0 | 0.0 | 0.00 | 0.00 | 0.00 | 94 | 1014.3 |
| 20260510021955 | 49 | 263 | 0.0 | 0.0 | 0.00 | 0.00 | 0.00 | 94 | 1014.1 |
| 20260510021453 | 49 | 263 | 0.0 | 0.0 | 0.00 | 0.00 | 0.00 | 94 | 1014.1 |
| 20260510020950 | 49 | 263 | 0.0 | 0.0 | 0.00 | 0.00 | 0.00 | 93 | 1014.0 |
| 20260510020445 | 49 | 263 | 0.0 | 0.0 | 0.00 | 0.00 | 0.00 | 93 | 1013.7 |
| 20260510015940 | 49 | 263 | 0.0 | 0.0 | 0.00 | 0.00 | 0.00 | 92 | 1013.6 |
| 20260510015436 | 50 | 263 | 0.0 | 0.0 | 0.00 | 0.00 | 0.00 | 92 | 1013.6 |
| 20260510014931 | 50 | 263 | 0.0 | 0.0 | 0.00 | 0.00 | 0.00 | 92 | 1013.5 |
| 20260510014429 | 50 | 263 | 0.0 | 0.0 | 0.00 | 0.00 | 0.00 | 91 | 1013.3 |
| 20260510013926 | 50 | 263 | 0.0 | 0.0 | 0.00 | 0.00 | 0.00 | 90 | 1013.3 |
| 20260510013420 | 51 | 263 | 0.0 | 0.0 | 0.00 | 0.00 | 0.00 | 90 | 1013.2 |
| 20260510012916 | 51 | 263 | 0.0 | 1.0 | 0.00 | 0.00 | 0.00 | 90 | 1013.1 |
| 20260510012411 | 51 | 263 | 0.0 | 0.0 | 0.00 | 0.00 | 0.00 | 89 | 1013.1 |
| 20260510011906 | 51 | 263 | 0.0 | 0.0 | 0.00 | 0.00 | 0.00 | 89 | 1013.1 |
| 20260510011401 | 52 | 263 | 0.0 | 0.0 | 0.00 | 0.00 | 0.00 | 87 | 1013.2 |
| 20260510010858 | 52 | 263 | 0.0 | 0.0 | 0.00 | 0.00 | 0.00 | 87 | 1013.0 |
| 20260510010356 | 52 | 262 | 0.0 | 0.0 | 0.00 | 0.00 | 0.00 | 87 | 1012.8 |
| 20260510005852 | 53 | 262 | 0.0 | 0.0 | 0.00 | 0.00 | 0.00 | 85 | 1013.0 |
| 20260510005348 | 53 | 262 | 0.0 | 0.0 | 0.00 | 0.00 | 0.00 | 85 | 1012.8 |
| 20260510004846 | 54 | 262 | 0.0 | 0.0 | 0.00 | 0.00 | 0.00 | 85 | 1012.7 |
| 20260510004344 | 54 | 262 | 0.0 | 0.0 | 0.00 | 0.00 | 0.00 | 82 | 1012.7 |
| 20260510003841 | 55 | 262 | 0.0 | 0.0 | 0.00 | 0.00 | 0.00 | 82 | 1012.7 |
| 20260510003338 | 55 | 262 | 0.0 | 0.0 | 0.00 | 0.00 | 0.00 | 79 | 1012.6 |
| 20260510002836 | 56 | 262 | 0.0 | 1.0 | 0.00 | 0.00 | 0.00 | 80 | 1012.6 |
| 20260510002334 | 56 | 262 | 0.0 | 0.0 | 0.00 | 0.00 | 0.00 | 77 | 1012.6 |
| 20260510001831 | 57 | 256 | 0.0 | 0.0 | 0.00 | 0.00 | 0.00 | 74 | 1012.6 |
| 20260510001329 | 57 | 255 | 0.0 | 0.0 | 0.00 | 0.00 | 0.00 | 74 | 1012.4 |
| 20260510000824 | 58 | 137 | 0.0 | 1.0 | 0.00 | 0.00 | 0.00 | 73 | 1012.3 |
| 20260510000321 | 59 | 264 | 0.0 | 1.0 | 0.00 | 0.00 | 0.00 | 69 | 1012.2 |
| 20260509235819 | 60 | 229 | 1.0 | 2.0 | 0.00 | 0.00 | 0.00 | 66 | 1012.2 |
| 20260509235315 | 60 | 183 | 0.0 | 0.0 | 0.00 | 0.00 | 0.00 | 66 | 1012.0 |
| 20260509234811 | 61 | 183 | 0.0 | 0.0 | 0.00 | 0.00 | 0.00 | 64 | 1012.2 |
| 20260509234308 | 61 | 135 | 0.0 | 0.0 | 0.00 | 0.00 | 0.00 | 63 | 1011.9 |
| 20260509233807 | 62 | 302 | 0.0 | 1.0 | 0.00 | 0.00 | 0.00 | 64 | 1012.0 |
| 20260509233303 | 62 | 233 | 2.0 | 2.0 | 0.00 | 0.00 | 0.00 | 63 | 1012.0 |
| 20260509232759 | 63 | 34 | 1.0 | 2.0 | 0.00 | 0.00 | 0.00 | 61 | 1012.1 |
| 20260509232257 | 63 | 294 | 2.0 | 3.0 | 0.00 | 0.00 | 0.00 | 60 | 1012.0 |
| 20260509231753 | 63 | 274 | 1.0 | 2.0 | 0.00 | 0.00 | 0.00 | 60 | 1012.0 |
| 20260509231250 | 63 | 157 | 1.0 | 4.0 | 0.00 | 0.00 | 0.00 | 59 | 1011.9 |
| 20260509230748 | 63 | 274 | 1.0 | 3.0 | 0.00 | 0.00 | 0.00 | 59 | 1011.8 |
| 20260509230245 | 63 | 297 | 1.0 | 3.0 | 0.00 | 0.00 | 0.00 | 58 | 1011.7 |
| 20260509225745 | 63 | 134 | 4.0 | 7.0 | 0.00 | 0.00 | 0.00 | 59 | 1011.8 |
| 20260509225241 | 63 | 338 | 2.0 | 6.0 | 0.00 | 0.00 | 0.00 | 58 | 1011.6 |
| 20260509224737 | 63 | 314 | 3.0 | 3.0 | 0.00 | 0.00 | 0.00 | 58 | 1011.9 |
| 20260509224235 | 63 | 312 | 2.0 | 4.0 | 0.00 | 0.00 | 0.00 | 58 | 1011.9 |
| 20260509223731 | 63 | 175 | 2.0 | 4.0 | 0.00 | 0.00 | 0.00 | 57 | 1011.8 |
| 20260509223228 | 63 | 294 | 4.0 | 6.0 | 0.00 | 0.00 | 0.00 | 58 | 1012.1 |
| 20260509222725 | 64 | 196 | 5.0 | 8.0 | 0.00 | 0.00 | 0.00 | 56 | 1012.0 |
| 20260509222220 | 64 | 305 | 3.0 | 7.0 | 0.00 | 0.00 | 0.00 | 56 | 1012.0 |
| 20260509221716 | 64 | 54 | 1.0 | 2.0 | 0.00 | 0.00 | 0.00 | 55 | 1012.0 |
| 20260509221213 | 65 | 350 | 1.0 | 4.0 | 0.00 | 0.00 | 0.00 | 54 | 1012.2 |
| 20260509220709 | 65 | 300 | 4.0 | 4.0 | 0.00 | 0.00 | 0.00 | 54 | 1012.0 |
| 20260509220206 | 65 | 126 | 2.0 | 3.0 | 0.00 | 0.00 | 0.00 | 54 | 1012.2 |
| 20260509215701 | 65 | 142 | 3.0 | 7.0 | 0.00 | 0.00 | 0.00 | 53 | 1012.2 |
| 20260509215158 | 65 | 275 | 1.0 | 3.0 | 0.00 | 0.00 | 0.00 | 53 | 1012.1 |
| 20260509214655 | 64 | 217 | 7.0 | 8.0 | 0.00 | 0.00 | 0.00 | 53 | 1012.1 |
| 20260509214152 | 64 | 318 | 0.0 | 0.0 | 0.00 | 0.00 | 0.00 | 54 | 1012.2 |
| 20260509213649 | 64 | 321 | 3.0 | 4.0 | 0.00 | 0.00 | 0.00 | 52 | 1011.9 |
| 20260509213144 | 64 | 91 | 0.0 | 4.0 | 0.00 | 0.00 | 0.00 | 52 | 1012.0 |
| 20260509212642 | 64 | 300 | 2.0 | 8.0 | 0.00 | 0.00 | 0.00 | 55 | 1012.2 |
| 20260509212139 | 65 | 8 | 1.0 | 7.0 | 0.00 | 0.00 | 0.00 | 51 | 1012.0 |
| 20260509211635 | 65 | 62 | 1.0 | 6.0 | 0.00 | 0.00 | 0.00 | 51 | 1012.2 |
| 20260509211132 | 65 | 321 | 2.0 | 4.0 | 0.00 | 0.00 | 0.00 | 50 | 1011.9 |
| 20260509210629 | 65 | 165 | 5.0 | 9.0 | 0.00 | 0.00 | 0.00 | 52 | 1011.9 |
| 20260509210121 | 64 | 305 | 2.0 | 4.0 | 0.00 | 0.00 | 0.00 | 54 | 1011.9 |
| 20260509205620 | 64 | 212 | 2.0 | 6.0 | 0.00 | 0.00 | 0.00 | 53 | 1011.8 |
| 20260509205115 | 64 | 332 | 1.0 | 6.0 | 0.00 | 0.00 | 0.00 | 53 | 1011.8 |
| 20260509204611 | 64 | 351 | 2.0 | 6.0 | 0.00 | 0.00 | 0.00 | 54 | 1011.9 |
| 20260509204108 | 64 | 332 | 2.0 | 3.0 | 0.00 | 0.00 | 0.00 | 52 | 1011.9 |
| 20260509203604 | 64 | 303 | 5.0 | 7.0 | 0.00 | 0.00 | 0.00 | 51 | 1011.8 |
| 20260509203103 | 65 | 320 | 4.0 | 10.0 | 0.00 | 0.00 | 0.00 | 51 | 1011.6 |
| 20260509202602 | 66 | 291 | 1.0 | 3.0 | 0.00 | 0.00 | 0.00 | 50 | 1011.4 |
| 20260509202059 | 65 | 341 | 1.0 | 3.0 | 0.00 | 0.00 | 0.00 | 54 | 1011.6 |
| 20260509201559 | 65 | 307 | 0.0 | 1.0 | 0.00 | 0.00 | 0.00 | 52 | 1011.4 |
| 20260509201057 | 65 | 150 | 6.0 | 8.0 | 0.00 | 0.00 | 0.00 | 53 | 1011.5 |
| 20260509200556 | 65 | 252 | 2.0 | 3.0 | 0.00 | 0.00 | 0.00 | 52 | 1011.4 |
| 20260509200053 | 64 | 327 | 2.0 | 3.0 | 0.00 | 0.00 | 0.00 | 52 | 1011.5 |
| 20260509195548 | 64 | 328 | 1.0 | 4.0 | 0.00 | 0.00 | 0.00 | 50 | 1011.5 |
| 20260509195043 | 66 | 117 | 2.0 | 7.0 | 0.00 | 0.00 | 0.00 | 49 | 1011.6 |
| 20260509194538 | 65 | 97 | 0.0 | 2.0 | 0.00 | 0.00 | 0.00 | 54 | 1011.4 |
| 20260509194036 | 65 | 333 | 3.0 | 4.0 | 0.00 | 0.00 | 0.00 | 52 | 1011.4 |
| 20260509193536 | 65 | 323 | 2.0 | 6.0 | 0.00 | 0.00 | 0.00 | 53 | 1011.3 |
| 20260509193033 | 64 | 17 | 0.0 | 0.0 | 0.00 | 0.00 | 0.00 | 56 | 1011.4 |
| 20260509192530 | 64 | 161 | 3.0 | 6.0 | 0.00 | 0.00 | 0.00 | 53 | 1011.2 |
| 20260509192025 | 64 | 255 | 4.0 | 6.0 | 0.00 | 0.00 | 0.00 | 52 | 1011.4 |
| 20260509191519 | 65 | 274 | 4.0 | 7.0 | 0.00 | 0.00 | 0.00 | 51 | 1011.4 |
| 20260509191015 | 65 | 242 | 4.0 | 6.0 | 0.00 | 0.00 | 0.00 | 50 | 1011.2 |
| 20260509190512 | 65 | 171 | 4.0 | 9.0 | 0.00 | 0.00 | 0.00 | 51 | 1011.2 |
| 20260509190010 | 65 | 182 | 5.0 | 7.0 | 0.00 | 0.00 | 0.00 | 48 | 1011.4 |
| 20260509185507 | 64 | 228 | 9.0 | 13.0 | 0.00 | 0.00 | 0.00 | 50 | 1011.3 |
| 20260509185003 | 64 | 181 | 7.0 | 11.0 | 0.00 | 0.00 | 0.00 | 51 | 1011.4 |
| 20260509184503 | 65 | 326 | 3.0 | 6.0 | 0.00 | 0.00 | 0.00 | 50 | 1011.5 |
| 20260509183958 | 65 | 316 | 1.0 | 8.0 | 0.00 | 0.00 | 0.00 | 52 | 1011.5 |
| 20260509183452 | 64 | 151 | 3.0 | 6.0 | 0.00 | 0.00 | 0.00 | 51 | 1011.3 |
| 20260509182949 | 66 | 329 | 3.0 | 7.0 | 0.00 | 0.00 | 0.00 | 49 | 1011.3 |
| 20260509182445 | 67 | 314 | 4.0 | 6.0 | 0.00 | 0.00 | 0.00 | 48 | 1011.5 |
| 20260509181943 | 67 | 310 | 2.0 | 4.0 | 0.00 | 0.00 | 0.00 | 49 | 1011.2 |
| 20260509181441 | 65 | 321 | 2.0 | 9.0 | 0.00 | 0.00 | 0.00 | 53 | 1011.4 |
| 20260509180938 | 65 | 157 | 4.0 | 9.0 | 0.00 | 0.00 | 0.00 | 54 | 1011.2 |
| 20260509180433 | 67 | 323 | 2.0 | 4.0 | 0.00 | 0.00 | 0.00 | 59 | 1011.3 |
| 20260509175931 | 65 | 323 | 1.0 | 9.0 | 0.00 | 0.00 | 0.00 | 54 | 1011.2 |
| 20260509175427 | 68 | 232 | 6.0 | 9.0 | 0.00 | 0.00 | 0.00 | 51 | 1011.3 |
| 20260509174923 | 66 | 29 | 1.0 | 3.0 | 0.00 | 0.00 | 0.00 | 53 | 1011.2 |
| 20260509174419 | 64 | 272 | 1.0 | 3.0 | 0.00 | 0.00 | 0.00 | 57 | 1011.3 |
| 20260509173915 | 64 | 315 | 4.0 | 4.0 | 0.00 | 0.00 | 0.00 | 57 | 1011.3 |
| 20260509173415 | 65 | 177 | 3.0 | 3.0 | 0.00 | 0.00 | 0.00 | 57 | 1011.4 |
| 20260509172912 | 63 | 290 | 1.0 | 6.0 | 0.00 | 0.00 | 0.00 | 61 | 1011.6 |
| 20260509172409 | 62 | 31 | 1.0 | 8.0 | 0.00 | 0.00 | 0.00 | 60 | 1011.5 |
| 20260509171904 | 62 | 358 | 1.0 | 4.0 | 0.00 | 0.00 | 0.00 | 60 | 1011.6 |
| 20260509171400 | 63 | 339 | 2.0 | 7.0 | 0.00 | 0.00 | 0.00 | 59 | 1011.7 |
| 20260509170857 | 63 | 164 | 8.0 | 9.0 | 0.00 | 0.00 | 0.00 | 58 | 1011.6 |
| 20260509170353 | 62 | 92 | 3.0 | 3.0 | 0.00 | 0.00 | 0.00 | 59 | 1011.7 |
| 20260509165849 | 63 | 143 | 2.0 | 9.0 | 0.00 | 0.00 | 0.00 | 62 | 1011.8 |
| 20260509165343 | 63 | 9 | 4.0 | 7.0 | 0.00 | 0.00 | 0.00 | 60 | 1012.0 |
| 20260509164839 | 62 | 113 | 4.0 | 8.0 | 0.00 | 0.00 | 0.00 | 61 | 1011.9 |
| 20260509164335 | 63 | 312 | 2.0 | 4.0 | 0.00 | 0.00 | 0.00 | 64 | 1011.8 |